Floweree, MT

07:21 MDT le 25 octobre 2014 (GMT -0600)
Malmstrom AFB | Change Station
CLOSE
Current Station
Aéroport
Location: Malmstrom AFB,
Altitude: 3527 ft
Stations météo à proximité

Alt. 3527 ft 47.50 °N, 111.19 °W | Updated 25 minutes ago

Ciel dégagé
Ciel dégagé
37 ° F
Paraît 34 ° F
N
4
Vent Variable Vent de Est

Aujourd'hui
Haut(e) -- | Bas -- ° F
--% Risque de précip.
Hier
Haut(e) -- | Bas -- ° F
Precip. -- pouce
7:58 AM 6:18 PM
Lune montante, 3% visible
Pression 30.05 pouce
Visibilité 10.0 Miles terrestres
Nuages Ciel dégagé
Refroidissement éolien 34 ° F
Point de rosée 36 ° F
Humidité 97%
Précipitations 0.00 pouce
Profondeur de la couche neigeuse Non disponible.
UV 0 sur 12
Pollen 2.70 sur 12
Qualité de l'air Non disponible.
Flu Activity No Activity
METAR KGFA 251256Z AUTO 10003KT 10SM CLR 03/02 A2999 RMK AO2 SLP175 T00260021

More Conditions Fewer Conditions

Pression 30.05 pouce
Visibilité 10.0 Miles terrestres
Nuages Ciel dégagé
Refroidissement éolien 34 ° F
Point de rosée 36 ° F
Humidité 97%
Précipitations 0.00 pouce
Profondeur de la couche neigeuse Non disponible.
UV 0 sur 12
Pollen 2.70 sur 12
Qualité de l'air Non disponible.
Flu Activity No Activity
METAR KGFA 251256Z AUTO 10003KT 10SM CLR 03/02 A2999 RMK AO2 SLP175 T00260021

More Conditions Fewer Conditions

10-Day Weather Forecast

Almanac

Astronomie

Oct. 25, 2014 Lever Coucher
Temps réel 07:58 MDT 18:18 MDT
Crépuscule civil 07:26 MDT 18:50 MDT
Crépuscule nautique 06:50 MDT 19:26 MDT
Crépuscule astronomique 06:15 MDT 20:01 MDT
Lune 09:46 MDT 19:37 MDT
Durée de lumière visible 11h 23m
Longueur du jour
10h 19m
Tomorrow will be 3m 12s shorter.
Lune montante, 3% of the Moon is Illuminated
Aujourd'hui
Lune montante
Oct 30
Premier quartier
Nov 6
Pleine lune
Nov 14
Dernier quartier
Nov 22
Nouveau

Extrêmes aujourd'hui

State Highs State Lows

Community

WunderPhotos

Upload Photos

1,764,829 Photos téléchargées !

Nearby

Épaisseur de neige

Station Depth Altitude
Stringer Creek 0 in 6550 ft
Onion Park 0 in 7410 ft
Deadman Creek 0 in 6450 ft
Pickfoot Creek 0 in 6650 ft
Boulder Mountain 0 in 7950 ft

Activité sismique

Ville Distance Mag. Time & Date
No recent earthquake activity has been reported nearby.
Minimum magnitude displayed is 2.5.

Températures des eaux côtières

Lieu Température
Aucun rapport de station

Stations météo à proximité